Time;durP1;ratioP1;P1;durP2;ratioP2;P2;SDS_P1;SDS_P2;PMS_P1;PMS_P2;Temp;Humidity;BMP_temperature;BMP_pressure;BME280_temperature;BME280_humidity;BME280_pressure;Samples;Min_cycle;Max_cycle;Signal;HPM_P1;HPM_P2
2022/06/12 00:01:33;;;;;;;15.77;3.22;;;14.30;91.90;;;;;;5074180;28;20348;-73
2022/06/12 00:04:01;;;;;;;12.35;2.65;;;14.30;92.00;;;;;;5074522;28;20455;-73
2022/06/12 00:06:29;;;;;;;11.95;2.75;;;14.30;92.10;;;;;;5055582;28;20067;-73
2022/06/12 00:08:57;;;;;;;11.60;3.00;;;14.30;92.20;;;;;;5074363;28;20051;-73
2022/06/12 00:11:27;;;;;;;16.23;3.13;;;14.30;92.30;;;;;;5074530;28;20055;-74
2022/06/12 00:13:59;;;;;;;17.90;3.03;;;14.20;92.40;;;;;;5073362;28;20387;-74
2022/06/12 00:16:29;;;;;;;13.45;3.10;;;14.20;92.40;;;;;;5074577;28;20060;-73
2022/06/12 00:18:57;;;;;;;13.30;3.08;;;14.20;92.60;;;;;;5074375;28;20040;-73
2022/06/12 00:21:26;;;;;;;16.55;3.10;;;14.10;92.60;;;;;;5073372;28;20045;-73
2022/06/12 00:23:57;;;;;;;13.73;3.58;;;14.10;92.60;;;;;;5074254;28;20044;-74
2022/06/12 00:26:41;;;;;;;13.95;3.78;;;14.10;92.90;;;;;;5073645;28;20045;-73
2022/06/12 00:29:14;;;;;;;12.82;3.00;;;14.00;93.20;;;;;;5056730;28;20044;-73
2022/06/12 00:31:54;;;;;;;19.63;3.45;;;14.00;93.10;;;;;;5074269;28;20048;-74
2022/06/12 00:34:27;;;;;;;19.20;3.65;;;14.00;93.40;;;;;;5073017;28;20056;-73
2022/06/12 00:36:56;;;;;;;14.25;3.80;;;13.90;93.60;;;;;;5078654;28;20056;-74
2022/06/12 00:39:25;;;;;;;17.33;3.55;;;13.90;93.60;;;;;;5077183;28;20040;-74
2022/06/12 00:41:55;;;;;;;21.02;3.58;;;13.90;93.70;;;;;;5078061;28;20363;-74
2022/06/12 00:44:27;;;;;;;16.45;3.47;;;13.90;93.80;;;;;;5078096;28;20367;-73
2022/06/12 00:46:57;;;;;;;15.93;3.78;;;13.90;93.80;;;;;;5076772;28;20041;-74
2022/06/12 00:49:33;;;;;;;17.27;3.50;;;13.80;93.90;;;;;;5078026;28;20056;-72
2022/06/12 00:52:31;;;;;;;15.73;3.60;;;13.80;94.00;;;;;;5060964;28;20052;-73
2022/06/12 00:55:24;;;;;;;20.85;3.70;;;13.80;94.70;;;;;;5076372;28;20048;-74
2022/06/12 00:57:56;;;;;;;16.75;3.60;;;13.70;94.60;;;;;;5078058;28;20048;-74
2022/06/12 01:00:23;;;;;;;14.38;3.20;;;13.70;94.40;;;;;;5059212;28;20048;-74
2022/06/12 01:02:52;;;;;;;14.63;3.20;;;13.60;94.30;;;;;;5077701;28;20045;-74
2022/06/12 01:08:08;;;;;;;17.58;3.90;;;13.60;94.70;;;;;;5076443;28;20048;-75
2022/06/12 01:10:40;;;;;;;17.60;3.75;;;13.60;94.80;;;;;;5077378;28;20048;-73
2022/06/12 01:13:15;;;;;;;20.13;4.00;;;13.50;94.90;;;;;;5076432;28;20371;-74
2022/06/12 01:15:50;;;;;;;15.85;3.47;;;13.50;95.10;;;;;;5060047;28;20048;-73
2022/06/12 01:18:22;;;;;;;21.77;3.92;;;13.40;95.00;;;;;;5077794;28;20052;-73
2022/06/12 01:20:57;;;;;;;20.55;4.00;;;13.40;95.00;;;;;;5076266;28;20462;-73
2022/06/12 01:23:38;;;;;;;13.85;3.80;;;13.40;95.40;;;;;;5077295;28;20382;-74
2022/06/12 01:26:15;;;;;;;16.20;3.97;;;13.30;95.60;;;;;;5058609;28;20239;-73
2022/06/12 01:29:04;;;;;;;19.13;3.40;;;13.30;95.40;;;;;;5077479;28;20045;-73
2022/06/12 01:31:41;;;;;;;22.38;4.28;;;13.20;95.90;;;;;;5077357;28;20045;-75
2022/06/12 01:34:30;;;;;;;18.90;3.55;;;13.10;95.50;;;;;;5076067;28;20045;-74
2022/06/12 01:37:17;;;;;;;14.82;3.90;;;13.10;96.10;;;;;;5060624;28;20047;-73
2022/06/12 01:39:58;;;;;;;21.30;4.00;;;13.10;96.40;;;;;;5058682;28;20041;-74
2022/06/12 01:43:00;;;;;;;16.50;3.70;;;13.00;96.10;;;;;;5059651;28;20063;-73
2022/06/12 01:45:53;;;;;;;18.48;3.45;;;12.90;96.40;;;;;;5077456;28;20040;-74
2022/06/12 01:48:42;;;;;;;21.95;4.60;;;12.90;96.20;;;;;;5058610;28;20138;-73
2022/06/12 01:51:21;;;;;;;23.45;4.20;;;12.80;96.50;;;;;;5076722;28;20044;-72
2022/06/12 01:54:14;;;;;;;17.08;4.35;;;12.70;97.00;;;;;;5058396;28;20379;-73
2022/06/12 01:56:44;;;;;;;21.55;4.25;;;12.70;97.00;;;;;;5076769;28;20458;-73
2022/06/12 01:59:19;;;;;;;21.50;4.03;;;12.60;97.00;;;;;;5057968;28;20371;-73
2022/06/12 02:02:10;;;;;;;16.92;3.70;;;12.60;97.00;;;;;;5076627;28;20060;-73
2022/06/12 02:04:57;;;;;;;21.45;4.55;;;12.60;98.20;;;;;;5076691;28;20048;-73
2022/06/12 02:07:45;;;;;;;18.58;3.83;;;12.50;97.40;;;;;;5075400;28;20041;-73
2022/06/12 02:10:25;;;;;;;23.25;4.57;;;12.50;97.90;;;;;;5076448;28;20466;-73
2022/06/12 02:13:13;;;;;;;21.23;4.03;;;12.50;97.50;;;;;;5075909;28;20044;-73
2022/06/12 02:15:56;;;;;;;19.05;4.75;;;12.40;97.60;;;;;;5075524;28;20471;-74
2022/06/12 02:18:27;;;;;;;21.85;4.35;;;14.30;98.60;;;;;;5076079;28;20051;-73
2022/06/12 02:21:16;;;;;;;20.77;4.38;;;12.30;98.00;;;;;;5075255;28;20040;-73
2022/06/12 02:24:09;;;;;;;28.10;4.40;;;12.20;98.80;;;;;;5058768;28;20479;-73
2022/06/12 02:26:42;;;;;;;17.92;4.28;;;12.20;99.80;;;;;;5031310;28;20049;-73
2022/06/12 02:29:22;;;;;;;19.48;4.32;;;12.20;98.80;;;;;;5076379;28;20037;-73
2022/06/12 02:31:53;;;;;;;16.45;4.28;;;12.30;99.40;;;;;;5076155;28;20041;-73
2022/06/12 02:34:25;;;;;;;18.88;4.53;;;12.30;98.90;;;;;;5074862;28;20466;-73
2022/06/12 02:36:58;;;;;;;23.00;4.82;;;12.20;98.90;;;;;;5075793;28;20366;-73
2022/06/12 02:39:32;;;;;;;17.60;3.92;;;12.20;99.20;;;;;;5075286;28;20307;-73
2022/06/12 02:42:09;;;;;;;23.23;4.47;;;12.20;99.30;;;;;;5075859;28;20047;-74
2022/06/12 02:44:39;;;;;;;19.90;4.28;;;12.20;99.70;;;;;;5058397;28;20466;-74
2022/06/12 02:47:12;;;;;;;22.10;4.70;;;12.20;99.60;;;;;;5040467;28;20059;-74
2022/06/12 02:49:43;;;;;;;27.50;4.75;;;12.10;99.80;;;;;;5075468;28;20056;-73
2022/06/12 02:52:39;;;;;;;25.02;5.20;;;12.20;99.90;;;;;;5058659;28;20051;-72
2022/06/12 02:55:23;;;;;;;22.40;4.50;;;12.20;99.90;;;;;;5075547;28;20064;-74
2022/06/12 02:58:03;;;;;;;30.55;4.90;;;12.10;99.90;;;;;;5075375;28;20045;-74
2022/06/12 03:00:35;;;;;;;22.65;4.90;;;12.10;99.90;;;;;;5056175;28;20067;-74
2022/06/12 03:03:32;;;;;;;18.85;4.47;;;12.00;99.90;;;;;;5076040;28;20047;-74
2022/06/12 03:06:01;;;;;;;20.63;5.00;;;12.10;99.90;;;;;;5074306;28;20041;-73
2022/06/12 03:08:31;;;;;;;;;;;12.10;99.90;;;;;;5075556;28;20041;-74
2022/06/12 03:11:09;;;;;;;26.85;4.82;;;12.00;99.90;;;;;;5075290;28;19921;-74
2022/06/12 03:13:38;;;;;;;27.33;4.90;;;12.00;99.90;;;;;;5074361;28;20067;-74
2022/06/12 03:16:08;;;;;;;27.33;5.45;;;12.00;99.90;;;;;;5075199;28;20074;-74
2022/06/12 03:18:40;;;;;;;25.60;5.25;;;12.00;99.90;;;;;;5057734;28;20067;-74
2022/06/12 03:21:22;;;;;;;27.73;5.22;;;12.00;99.90;;;;;;5073869;28;20044;-74
2022/06/12 03:24:19;;;;;;;27.10;5.45;;;12.00;99.90;;;;;;5075167;28;20048;-74
2022/06/12 03:27:15;;;;;;;21.70;4.85;;;12.00;99.90;;;;;;5073983;28;20055;-73
2022/06/12 03:30:06;;;;;;;31.90;5.07;;;13.60;99.90;;;;;;5074904;28;20044;-73
2022/06/12 03:33:01;;;;;;;22.98;5.22;;;12.00;99.90;;;;;;5074094;28;20494;-73
2022/06/12 03:35:43;;;;;;;27.85;5.43;;;12.00;99.90;;;;;;5074876;28;20040;-74
2022/06/12 03:38:20;;;;;;;25.08;5.03;;;12.00;99.90;;;;;;5075377;28;20049;-74
2022/06/12 03:40:57;;;;;;;24.27;4.95;;;11.90;99.90;;;;;;5073902;28;20040;-74
2022/06/12 03:43:58;;;;;;;28.77;5.15;;;11.90;99.90;;;;;;5075175;28;20048;-73
2022/06/12 03:46:44;;;;;;;20.52;5.30;;;11.90;99.90;;;;;;5030932;28;20052;-73
2022/06/12 03:49:29;;;;;;;27.27;5.30;;;11.90;99.90;;;;;;5074875;28;20041;-73
2022/06/12 03:52:12;;;;;;;26.75;5.20;;;11.90;99.90;;;;;;5074860;28;20454;-73
2022/06/12 03:54:45;;;;;;;26.65;5.65;;;11.90;99.90;;;;;;5073410;28;20044;-74
2022/06/12 04:00:07;;;;;;;33.50;5.70;;;11.80;99.90;;;;;;5073458;28;20040;-74
2022/06/12 04:02:41;;;;;;;30.73;5.20;;;11.70;99.90;;;;;;5056706;28;20458;-74
2022/06/12 04:05:18;;;;;;;30.90;5.95;;;11.70;99.90;;;;;;5074424;28;20045;-73
2022/06/12 04:07:52;;;;;;;34.67;6.28;;;11.60;99.90;;;;;;5073322;28;20066;-74
2022/06/12 04:10:24;;;;;;;31.25;5.60;;;11.60;99.90;;;;;;5077286;28;20048;-74
2022/06/12 04:12:52;;;;;;;28.10;5.63;;;11.60;99.90;;;;;;5080099;28;20492;-73
2022/06/12 04:15:41;;;;;;;33.08;5.82;;;11.60;99.90;;;;;;5081436;28;20044;-74
2022/06/12 04:18:09;;;;;;;21.70;4.95;;;11.60;99.90;;;;;;5081043;28;20041;-74
2022/06/12 04:20:37;;;;;;;21.05;4.95;;;11.60;99.90;;;;;;5079891;28;20059;-73
2022/06/12 04:23:11;;;;;;;29.33;5.82;;;11.70;99.90;;;;;;5081049;28;20040;-74
2022/06/12 04:25:50;;;;;;;25.73;5.38;;;11.70;99.90;;;;;;5081575;28;20044;-73
2022/06/12 04:28:35;;;;;;;25.58;5.45;;;11.70;99.90;;;;;;5081361;28;20055;-74
2022/06/12 04:31:11;;;;;;;29.25;5.60;;;11.70;99.90;;;;;;5081161;28;20052;-74
2022/06/12 04:34:07;;;;;;;25.15;5.38;;;11.80;99.90;;;;;;5079823;28;20049;-73
2022/06/12 04:36:34;;;;;;;31.27;5.68;;;11.70;99.90;;;;;;5080986;28;20059;-74
2022/06/12 04:39:03;;;;;;;29.80;5.80;;;11.80;99.90;;;;;;5080980;28;20461;-75
2022/06/12 04:41:35;;;;;;;33.92;6.03;;;11.80;99.90;;;;;;5079966;28;20079;-74
2022/06/12 04:44:05;;;;;;;23.60;5.30;;;11.90;99.90;;;;;;5080739;28;20045;-74
2022/06/12 04:46:35;;;;;;;26.08;5.38;;;11.90;99.90;;;;;;5062247;28;20041;-74
2022/06/12 04:49:03;;;;;;;33.58;5.43;;;11.90;99.90;;;;;;5063452;28;20051;-74
2022/06/12 04:51:31;;;;;;;28.85;5.25;;;12.00;99.90;;;;;;5081055;28;20052;-75
2022/06/12 04:53:59;;;;;;;28.92;5.30;;;12.00;99.90;;;;;;5079790;28;20044;-74
2022/06/12 04:56:29;;;;;;;31.52;5.38;;;12.00;99.90;;;;;;5080775;28;20048;-73
2022/06/12 04:58:57;;;;;;;23.70;5.28;;;12.10;99.90;;;;;;5081101;28;20052;-73
2022/06/12 05:01:25;;;;;;;;;;;12.10;99.90;;;;;;5079712;28;20040;-75
2022/06/12 05:03:56;;;;;;;28.85;5.57;;;12.10;99.90;;;;;;5080986;28;20358;-73
2022/06/12 05:06:25;;;;;;;31.63;5.25;;;12.20;99.90;;;;;;5079565;28;20486;-74
2022/06/12 05:08:54;;;;;;;30.58;5.95;;;12.20;99.90;;;;;;5080720;28;20044;-74
2022/06/12 05:11:23;;;;;;;31.30;5.47;;;12.20;99.90;;;;;;5046700;28;20048;-74
2022/06/12 05:13:50;;;;;;;30.13;5.40;;;12.30;99.90;;;;;;5079662;28;20067;-75
2022/06/12 05:16:41;;;;;;;24.83;5.15;;;12.30;99.90;;;;;;5080868;28;20053;-74
2022/06/12 05:19:12;;;;;;;25.17;5.18;;;12.30;99.90;;;;;;5079747;28;20094;-74
2022/06/12 05:21:40;;;;;;;28.80;4.90;;;12.40;99.90;;;;;;5078189;28;20498;-74
2022/06/12 05:24:09;;;;;;;28.05;5.35;;;12.50;99.90;;;;;;5077966;28;20447;-73
2022/06/12 05:26:41;;;;;;;26.02;5.20;;;12.50;99.90;;;;;;5076125;28;20037;-74
2022/06/12 05:29:14;;;;;;;33.00;5.90;;;12.50;99.90;;;;;;5077488;28;20056;-75
2022/06/12 05:31:42;;;;;;;28.60;5.47;;;12.50;99.90;;;;;;5077427;28;20467;-74
2022/06/12 05:34:10;;;;;;;32.33;5.55;;;12.60;99.90;;;;;;5058567;28;20044;-75
2022/06/12 05:36:37;;;;;;;26.20;5.65;;;12.60;99.90;;;;;;5077076;28;20108;-74
2022/06/12 05:39:05;;;;;;;26.30;5.32;;;12.70;99.90;;;;;;5077160;28;20051;-74
2022/06/12 05:41:33;;;;;;;20.85;5.00;;;12.70;99.90;;;;;;5076999;28;20051;-74
2022/06/12 05:44:00;;;;;;;25.70;5.38;;;12.70;99.90;;;;;;5077198;28;20044;-74
2022/06/12 05:46:28;;;;;;;24.35;5.50;;;12.80;99.90;;;;;;5075625;28;20406;-73
2022/06/12 05:48:56;;;;;;;26.40;5.28;;;12.80;99.90;;;;;;5059231;28;20044;-73
2022/06/12 05:51:23;;;;;;;28.40;5.70;;;12.90;99.90;;;;;;5077375;28;20059;-76
2022/06/12 05:53:51;;;;;;;28.92;6.20;;;12.90;99.90;;;;;;5075954;28;20509;-75
2022/06/12 05:56:22;;;;;;;31.13;5.45;;;13.00;99.90;;;;;;5076597;28;20048;-74
2022/06/12 05:58:50;;;;;;;23.38;4.47;;;13.00;99.90;;;;;;5076969;28;20123;-73
2022/06/12 06:01:19;;;;;;;26.90;5.28;;;13.10;99.90;;;;;;5075206;28;20498;-74
2022/06/12 06:03:48;;;;;;;27.63;5.18;;;13.10;99.90;;;;;;5076562;28;20456;-73
2022/06/12 06:06:20;;;;;;;24.75;5.03;;;13.10;99.90;;;;;;5075402;28;20459;-73
2022/06/12 06:08:49;;;;;;;29.90;5.50;;;13.20;99.90;;;;;;5076642;28;20055;-73
2022/06/12 06:11:17;;;;;;;25.58;5.18;;;13.20;99.90;;;;;;5059020;28;20063;-73
2022/06/12 06:13:45;;;;;;;23.42;5.05;;;13.30;99.90;;;;;;5075300;28;20045;-74
2022/06/12 06:16:13;;;;;;;24.88;5.00;;;13.30;99.90;;;;;;5076768;28;20048;-73
2022/06/12 06:18:41;;;;;;;25.63;4.85;;;13.30;99.90;;;;;;5076531;28;20377;-74
2022/06/12 06:21:11;;;;;;;25.40;5.50;;;13.40;99.90;;;;;;5074994;28;20044;-74
2022/06/12 06:23:46;;;;;;;27.52;5.30;;;13.40;99.90;;;;;;5058762;28;20051;-74
2022/06/12 06:26:14;;;;;;;;;;;13.40;99.90;;;;;;5075553;28;20041;-74
2022/06/12 06:28:41;;;;;;;26.55;4.55;;;13.50;99.90;;;;;;5076414;28;20350;-73
2022/06/12 06:31:10;;;;;;;27.85;4.55;;;13.50;99.90;;;;;;5058407;28;20052;-73
2022/06/12 06:33:38;;;;;;;26.33;4.82;;;13.60;99.90;;;;;;5074765;28;20056;-73
2022/06/12 06:36:10;;;;;;;29.42;4.72;;;13.60;99.90;;;;;;5058949;28;20056;-73
2022/06/12 06:38:38;;;;;;;24.30;5.18;;;13.70;99.90;;;;;;5058520;28;20048;-74
2022/06/12 06:41:07;;;;;;;29.52;4.85;;;13.70;99.90;;;;;;5074637;28;20047;-74
2022/06/12 06:46:13;;;;;;;23.02;4.57;;;13.80;99.90;;;;;;5075868;28;20040;-74
2022/06/12 06:46:23;;;;;;;25.17;4.93;;;13.90;99.90;;;;;;5074479;28;20044;-73
2022/06/12 06:48:51;;;;;;;25.33;4.90;;;13.60;99.90;;;;;;5058356;28;20048;-73
2022/06/12 06:51:19;;;;;;;21.83;4.80;;;14.10;99.90;;;;;;5058481;28;20059;-74
2022/06/12 06:53:46;;;;;;;28.23;4.70;;;14.20;99.90;;;;;;5074886;28;20363;-74
2022/06/12 06:56:15;;;;;;;24.52;5.10;;;14.20;99.90;;;;;;5075636;28;20378;-74
2022/06/12 06:58:43;;;;;;;20.40;4.40;;;14.30;99.90;;;;;;5075138;28;20048;-74
2022/06/12 07:01:11;;;;;;;26.65;4.70;;;14.30;99.90;;;;;;5048824;28;20037;-73
2022/06/12 07:03:44;;;;;;;24.27;4.80;;;14.30;99.90;;;;;;5034539;28;20468;-74
2022/06/12 07:06:16;;;;;;;21.35;4.40;;;14.40;99.90;;;;;;5034522;28;20046;-74
2022/06/12 07:08:52;;;;;;;26.55;4.63;;;14.40;99.90;;;;;;5034889;28;20045;-73
2022/06/12 07:11:19;;;;;;;;;;;14.50;99.90;;;;;;5035726;28;20048;-74
2022/06/12 07:13:47;;;;;;;19.67;4.30;;;14.60;99.90;;;;;;5034318;28;19984;-73
2022/06/12 07:16:17;;;;;;;26.50;5.15;;;14.70;99.90;;;;;;5035395;28;20113;-74
2022/06/12 07:18:45;;;;;;;26.20;4.28;;;14.80;99.90;;;;;;5034807;28;20396;-75
2022/06/12 07:21:14;;;;;;;20.90;4.18;;;14.90;99.90;;;;;;5034059;28;20048;-74
2022/06/12 07:23:42;;;;;;;23.98;4.90;;;15.00;99.50;;;;;;5035358;28;20045;-74
2022/06/12 07:26:28;;;;;;;;;;;15.10;99.30;;;;;;5033749;28;20368;-74
2022/06/12 07:28:56;;;;;;;23.92;4.55;;;14.80;99.00;;;;;;5034845;28;19928;-74
2022/06/12 07:31:27;;;;;;;21.60;4.78;;;15.20;99.00;;;;;;5035041;28;20049;-75
2022/06/12 07:33:54;;;;;;;24.60;4.68;;;15.20;98.70;;;;;;5033043;28;20052;-74
2022/06/12 07:36:25;;;;;;;20.65;4.60;;;15.20;98.90;;;;;;5017694;28;20065;-75
2022/06/12 07:38:54;;;;;;;22.20;4.65;;;15.30;98.90;;;;;;5034816;28;20056;-75
2022/06/12 07:41:43;;;;;;;19.88;4.30;;;15.30;98.60;;;;;;5033669;28;20045;-74
2022/06/12 07:44:12;;;;;;;19.98;3.90;;;15.30;98.60;;;;;;5034058;28;20365;-74
2022/06/12 07:46:39;;;;;;;20.60;4.75;;;15.40;98.50;;;;;;5031474;28;20061;-74
2022/06/12 07:49:07;;;;;;;22.50;4.82;;;15.40;98.70;;;;;;5034523;28;20468;-74
2022/06/12 07:51:37;;;;;;;18.85;4.57;;;15.30;98.50;;;;;;5000906;28;20053;-73
2022/06/12 07:54:06;;;;;;;21.70;4.32;;;15.40;98.40;;;;;;5033358;28;20052;-74
2022/06/12 07:56:33;;;;;;;19.92;4.60;;;15.40;98.50;;;;;;5034334;28;20050;-74
2022/06/12 07:59:01;;;;;;;22.13;4.80;;;15.50;98.30;;;;;;5034410;28;20045;-74
2022/06/12 08:01:30;;;;;;;17.25;4.30;;;15.50;98.10;;;;;;5031880;28;20049;-73
2022/06/12 08:03:58;;;;;;;25.65;4.35;;;15.50;98.00;;;;;;5034240;28;20049;-74
2022/06/12 08:06:26;;;;;;;18.20;4.55;;;15.60;98.20;;;;;;5032422;28;20464;-73
2022/06/12 08:08:56;;;;;;;19.25;4.97;;;15.70;98.20;;;;;;5034192;28;20061;-73
2022/06/12 08:11:31;;;;;;;21.40;5.30;;;15.70;97.90;;;;;;5034339;28;20061;-74
2022/06/12 08:13:59;;;;;;;16.25;4.47;;;15.90;97.90;;;;;;5032395;28;20048;-74
2022/06/12 08:16:29;;;;;;;22.17;4.47;;;16.00;97.60;;;;;;5034040;28;20045;-73
2022/06/12 08:18:57;;;;;;;19.95;4.68;;;16.00;97.10;;;;;;5034331;28;20353;-73
2022/06/12 08:21:26;;;;;;;27.25;4.95;;;16.10;96.70;;;;;;5032259;28;20045;-73
2022/06/12 08:23:58;;;;;;;21.35;4.55;;;16.20;96.60;;;;;;5034206;28;20046;-73
2022/06/12 08:26:33;;;;;;;18.30;4.40;;;16.30;96.60;;;;;;5033077;28;20057;-74
2022/06/12 08:29:08;;;;;;;19.17;4.28;;;16.40;95.20;;;;;;5033208;28;20491;-74
2022/06/12 08:31:41;;;;;;;19.83;4.47;;;16.50;95.10;;;;;;5034383;28;20372;-73
2022/06/12 08:34:22;;;;;;;17.63;4.25;;;16.60;95.10;;;;;;5033358;28;20057;-75
2022/06/12 08:36:53;;;;;;;19.50;3.85;;;16.70;94.70;;;;;;5033271;28;20049;-74
2022/06/12 08:39:21;;;;;;;17.85;3.60;;;16.80;94.10;;;;;;5032441;28;20046;-74
2022/06/12 08:42:00;;;;;;;;;;;;;;;;;;;;;
2022/06/12 08:44:48;;;;;;;15.25;3.97;;;17.20;93.20;;;;;;5033203;28;20363;-74
2022/06/12 08:47:33;;;;;;;16.90;3.60;;;17.00;93.00;;;;;;5032376;28;20053;-74
2022/06/12 08:50:16;;;;;;;20.17;4.68;;;17.10;92.70;;;;;;5034123;28;20479;-74
2022/06/12 08:53:09;;;;;;;20.45;4.07;;;17.10;93.10;;;;;;5033329;28;20046;-74
2022/06/12 08:55:54;;;;;;;16.85;3.85;;;17.10;92.90;;;;;;5034381;28;20041;-74
2022/06/12 08:58:22;;;;;;;19.60;3.70;;;17.10;92.60;;;;;;5037035;28;20056;-72
2022/06/12 09:00:54;;;;;;;18.70;3.45;;;17.10;92.70;;;;;;5040559;28;20068;-73
2022/06/12 09:03:26;;;;;;;20.20;3.83;;;17.10;91.80;;;;;;5059855;28;20467;-73
2022/06/12 09:06:14;;;;;;;13.40;3.70;;;17.10;92.00;;;;;;5059401;28;20467;-73
2022/06/12 09:08:48;;;;;;;16.90;3.95;;;17.10;92.20;;;;;;5060496;28;20083;-74
2022/06/12 09:11:34;;;;;;;18.08;3.80;;;17.10;92.30;;;;;;5077990;28;20047;-74
2022/06/12 09:14:26;;;;;;;15.15;3.22;;;17.10;92.10;;;;;;5076896;28;20044;-74
2022/06/12 09:17:06;;;;;;;16.17;3.97;;;17.10;92.30;;;;;;5077408;28;20040;-74
2022/06/12 09:20:01;;;;;;;14.05;3.60;;;17.10;92.40;;;;;;5077488;28;20060;-73
2022/06/12 09:22:44;;;;;;;13.82;3.55;;;17.30;91.80;;;;;;5077128;28;20056;-74
2022/06/12 09:25:22;;;;;;;17.10;3.75;;;17.40;92.00;;;;;;5060176;28;20049;-74
2022/06/12 09:28:20;;;;;;;19.80;3.70;;;17.60;91.00;;;;;;5076429;28;20056;-74
2022/06/12 09:31:00;;;;;;;15.45;3.65;;;17.80;91.40;;;;;;5077535;28;20048;-75
2022/06/12 09:33:42;;;;;;;13.13;3.58;;;17.90;91.10;;;;;;5076121;28;20051;-75
2022/06/12 09:36:44;;;;;;;17.77;3.92;;;17.80;90.90;;;;;;5077562;28;20055;-74
2022/06/12 09:39:31;;;;;;;17.15;3.60;;;17.90;91.00;;;;;;5076135;28;20131;-74
2022/06/12 09:41:58;;;;;;;14.20;3.50;;;18.10;89.40;;;;;;5060151;28;20059;-74
2022/06/12 09:44:55;;;;;;;10.85;3.20;;;18.10;90.60;;;;;;5077480;28;20040;-73
2022/06/12 09:48:00;;;;;;;15.83;3.40;;;18.30;90.00;;;;;;5058706;28;20410;-73
2022/06/12 09:50:53;;;;;;;11.80;3.20;;;18.50;89.50;;;;;;4989230;28;20454;-76
2022/06/12 09:53:52;;;;;;;16.33;3.30;;;18.80;88.00;;;;;;5058528;28;20089;-74
2022/06/12 09:56:39;;;;;;;11.45;3.15;;;18.90;88.20;;;;;;5070107;28;20056;-74
2022/06/12 09:59:18;;;;;;;13.77;3.13;;;18.80;87.60;;;;;;5042148;28;20451;-75
2022/06/12 10:01:52;;;;;;;11.43;3.15;;;18.30;87.30;;;;;;5076617;28;20055;-79
2022/06/12 10:04:30;;;;;;;12.20;3.10;;;18.70;88.20;;;;;;5077108;28;20059;-74
2022/06/12 10:07:07;;;;;;;11.73;3.13;;;18.70;87.60;;;;;;5075704;28;20057;-73
2022/06/12 10:10:10;;;;;;;11.68;2.88;;;18.80;86.50;;;;;;5058693;28;20355;-75
2022/06/12 10:12:42;;;;;;;11.07;3.10;;;18.80;86.30;;;;;;5075849;28;20044;-74
2022/06/12 10:15:25;;;;;;;9.35;3.03;;;19.00;86.00;;;;;;5076472;28;20044;-74
2022/06/12 10:18:28;;;;;;;16.15;3.80;;;19.10;85.20;;;;;;5077090;28;20045;-75
2022/06/12 10:21:03;;;;;;;10.75;2.63;;;19.20;84.80;;;;;;5004576;28;20048;-74
2022/06/12 10:23:30;;;;;;;12.82;2.78;;;19.20;83.90;;;;;;5076137;28;20520;-74
2022/06/12 10:26:00;;;;;;;8.95;3.00;;;19.30;84.30;;;;;;5075741;28;20467;-74
2022/06/12 10:28:36;;;;;;;10.00;2.60;;;19.50;83.60;;;;;;5058772;28;20044;-75
2022/06/12 10:31:10;;;;;;;15.65;3.22;;;19.70;81.50;;;;;;5059329;28;20048;-75
2022/06/12 10:34:04;;;;;;;14.00;2.83;;;19.70;81.40;;;;;;5075206;28;20048;-72
2022/06/12 10:36:33;;;;;;;4.97;2.20;;;19.70;81.20;;;;;;5076242;28;20367;-74
2022/06/12 10:39:07;;;;;;;9.60;2.50;;;19.70;82.20;;;;;;5042200;28;20055;-74
2022/06/12 10:42:02;;;;;;;12.70;2.90;;;19.80;80.60;;;;;;5076274;28;20040;-73
2022/06/12 10:44:44;;;;;;;10.05;2.70;;;20.10;80.90;;;;;;5075315;28;20055;-75
2022/06/12 10:47:20;;;;;;;11.65;2.60;;;20.30;79.60;;;;;;5057926;28;20040;-75
2022/06/12 10:50:01;;;;;;;10.15;2.85;;;20.50;79.70;;;;;;5076254;28;20052;-74
2022/06/12 10:52:30;;;;;;;11.40;2.65;;;20.70;79.90;;;;;;5057493;28;20045;-74
2022/06/12 10:54:57;;;;;;;9.27;2.58;;;20.80;79.70;;;;;;5058502;28;20041;-75
2022/06/12 10:57:45;;;;;;;8.25;2.42;;;21.00;79.80;;;;;;5075672;28;20075;-74
2022/06/12 11:00:22;;;;;;;9.38;2.55;;;21.30;78.60;;;;;;5074632;28;20048;-76
2022/06/12 11:03:15;;;;;;;7.78;2.13;;;21.40;78.40;;;;;;5057993;28;20052;-75
2022/06/12 11:06:01;;;;;;;8.48;2.15;;;21.50;75.60;;;;;;5075809;28;20363;-74
2022/06/12 11:08:47;;;;;;;11.85;2.50;;;21.60;76.50;;;;;;5075847;28;20045;-74
2022/06/12 11:11:50;;;;;;;8.25;2.30;;;21.70;76.70;;;;;;5074079;28;20335;-75
2022/06/12 11:14:36;;;;;;;7.78;2.47;;;21.80;75.10;;;;;;5072814;28;20562;-74
2022/06/12 11:17:07;;;;;;;11.30;2.78;;;22.10;75.70;;;;;;5074085;28;20055;-74
2022/06/12 11:19:59;;;;;;;15.00;3.08;;;22.10;75.00;;;;;;5072597;28;20048;-73
2022/06/12 11:22:32;;;;;;;9.65;2.83;;;22.10;75.20;;;;;;5066843;28;20471;-80
2022/06/12 11:25:30;;;;;;;10.60;3.00;;;22.10;75.60;;;;;;5055709;28;20490;-80
2022/06/12 11:28:33;;;;;;;9.43;2.53;;;22.00;75.00;;;;;;5036787;28;20040;-76
2022/06/12 11:31:07;;;;;;;11.82;2.70;;;21.90;75.30;;;;;;5021116;28;20052;-75
2022/06/12 11:33:37;;;;;;;9.45;2.65;;;21.80;75.60;;;;;;5034250;28;20052;-79
2022/06/12 11:36:38;;;;;;;10.15;2.58;;;21.70;75.00;;;;;;5035464;28;20045;-75
2022/06/12 11:39:28;;;;;;;9.23;2.28;;;21.60;73.70;;;;;;5034812;28;20064;-77
2022/06/12 11:42:36;;;;;;;8.70;2.53;;;21.60;75.20;;;;;;5050527;28;20041;-77
2022/06/12 11:45:26;;;;;;;9.82;2.67;;;21.60;73.90;;;;;;5022154;28;20534;-76
2022/06/12 11:48:21;;;;;;;11.23;3.85;;;21.60;74.30;;;;;;5033772;28;20050;-78
2022/06/12 11:51:16;;;;;;;10.18;2.70;;;21.40;73.80;;;;;;5017773;28;20368;-77
2022/06/12 11:54:01;;;;;;;10.63;3.13;;;21.30;74.60;;;;;;5033680;28;20494;-78
2022/06/12 11:56:51;;;;;;;10.40;3.00;;;21.20;75.90;;;;;;5034052;28;20068;-77
2022/06/12 11:59:59;;;;;;;9.80;2.72;;;21.40;75.20;;;;;;4989471;28;20062;-76
2022/06/12 12:02:58;;;;;;;8.65;2.55;;;21.60;75.10;;;;;;5028885;28;20332;-77
2022/06/12 12:05:38;;;;;;;9.93;2.80;;;21.90;73.50;;;;;;5034775;28;20049;-76
2022/06/12 12:08:24;;;;;;;12.82;3.10;;;22.00;73.80;;;;;;5032534;28;20049;-75
2022/06/12 12:11:10;;;;;;;12.23;3.92;;;22.20;74.20;;;;;;5034566;28;20057;-75
2022/06/12 12:13:42;;;;;;;10.27;3.78;;;22.40;73.70;;;;;;5048940;28;20053;-76
2022/06/12 12:16:12;;;;;;;10.38;3.50;;;22.60;73.00;;;;;;5034278;28;20337;-75
2022/06/12 12:18:47;;;;;;;12.85;3.47;;;22.50;72.30;;;;;;5051977;28;20052;-76
2022/06/12 12:21:25;;;;;;;12.25;3.92;;;22.40;73.00;;;;;;5052642;28;20049;-74
2022/06/12 12:23:54;;;;;;;12.68;4.10;;;22.30;73.60;;;;;;5053444;28;20041;-75
2022/06/12 12:26:24;;;;;;;12.77;3.80;;;22.40;74.00;;;;;;5052771;28;20361;-73
2022/06/12 12:29:03;;;;;;;10.80;3.00;;;22.50;73.60;;;;;;5036866;28;20045;-75
2022/06/12 12:31:32;;;;;;;10.13;3.08;;;22.60;73.50;;;;;;5056334;28;20045;-74
2022/06/12 12:34:03;;;;;;;9.68;2.83;;;22.50;73.50;;;;;;5057746;28;20056;-74
2022/06/12 12:42:39;;;;;;;14.70;3.20;;;22.10;72.40;;;;;;5058611;28;20052;-74
2022/06/12 12:45:25;;;;;;;12.25;3.03;;;22.00;72.40;;;;;;5057378;28;20056;-74
2022/06/12 12:48:09;;;;;;;10.35;3.40;;;21.80;72.80;;;;;;5057304;28;20483;-74
2022/06/12 12:50:49;;;;;;;9.43;2.80;;;21.80;73.80;;;;;;5058773;28;20040;-74
2022/06/12 12:53:31;;;;;;;8.20;2.65;;;21.80;72.70;;;;;;5057504;28;20068;-75
2022/06/12 12:56:00;;;;;;;8.93;2.53;;;21.90;72.80;;;;;;5057164;28;20047;-73
2022/06/12 12:58:30;;;;;;;10.38;3.40;;;22.00;73.20;;;;;;5057167;28;20036;-74
2022/06/12 13:01:19;;;;;;;10.85;2.92;;;21.90;73.60;;;;;;5053404;28;20080;-74
2022/06/12 13:03:55;;;;;;;7.75;2.38;;;21.90;73.00;;;;;;5037921;28;20373;-74
2022/06/12 13:06:38;;;;;;;10.55;2.60;;;21.90;73.40;;;;;;5036637;28;20045;-74
2022/06/12 13:09:56;;;;;;;9.65;2.78;;;22.00;72.90;;;;;;5037677;28;20068;-74
2022/06/12 13:12:32;;;;;;;10.38;3.08;;;22.00;72.80;;;;;;4941826;29;20066;-75
2022/06/12 13:15:24;;;;;;;8.50;2.45;;;22.20;72.50;;;;;;5009590;28;20068;-75
2022/06/12 13:18:08;;;;;;;7.75;2.60;;;22.30;71.10;;;;;;5004202;28;20065;-73
2022/06/12 13:20:57;;;;;;;11.23;2.45;;;22.30;69.70;;;;;;5002184;28;20045;-75
2022/06/12 13:23:34;;;;;;;8.23;2.45;;;22.20;69.40;;;;;;5037996;28;20049;-74
2022/06/12 13:26:07;;;;;;;7.45;2.83;;;22.10;70.10;;;;;;5019309;28;20045;-75
2022/06/12 13:28:35;;;;;;;9.48;2.60;;;23.00;70.30;;;;;;5037559;28;20487;-74
2022/06/12 13:31:04;;;;;;;9.35;2.47;;;24.40;67.90;;;;;;5037450;28;20333;-74
2022/06/12 13:33:35;;;;;;;10.30;2.75;;;26.10;66.20;;;;;;5036467;28;20045;-74
2022/06/12 13:36:13;;;;;;;8.20;2.75;;;26.60;63.00;;;;;;5036853;28;20049;-74
2022/06/12 13:39:01;;;;;;;;;;;26.70;63.90;;;;;;5037687;28;20046;-73
2022/06/12 13:41:35;;;;;;;9.88;3.10;;;27.50;62.30;;;;;;5018879;28;19936;-75
2022/06/12 13:44:27;;;;;;;8.55;2.83;;;28.50;61.70;;;;;;5019521;28;20049;-75